sensor_id;sensor_type;location;lat;lon;timestamp;temperature;humidity
62589;DHT22;58504;48.770;9.148;2023-06-22T00:01:09;25.40;62.00
62589;DHT22;58504;48.770;9.148;2023-06-22T00:03:36;25.40;62.00
62589;DHT22;58504;48.770;9.148;2023-06-22T00:06:03;25.40;61.90
62589;DHT22;58504;48.770;9.148;2023-06-22T00:08:30;25.40;61.80
62589;DHT22;58504;48.770;9.148;2023-06-22T00:10:56;25.40;61.80
62589;DHT22;58504;48.770;9.148;2023-06-22T00:13:23;25.40;61.70
62589;DHT22;58504;48.770;9.148;2023-06-22T00:15:50;25.40;61.70
62589;DHT22;58504;48.770;9.148;2023-06-22T00:18:18;25.40;61.80
62589;DHT22;58504;48.770;9.148;2023-06-22T00:20:45;25.40;61.80
62589;DHT22;58504;48.770;9.148;2023-06-22T00:23:12;25.40;61.70
62589;DHT22;58504;48.770;9.148;2023-06-22T00:25:39;25.40;61.70
62589;DHT22;58504;48.770;9.148;2023-06-22T00:28:07;25.40;61.70
62589;DHT22;58504;48.770;9.148;2023-06-22T00:30:34;25.40;61.70
62589;DHT22;58504;48.770;9.148;2023-06-22T00:33:01;25.50;61.80
62589;DHT22;58504;48.770;9.148;2023-06-22T00:35:29;25.40;61.60
62589;DHT22;58504;48.770;9.148;2023-06-22T00:37:56;25.40;61.60
62589;DHT22;58504;48.770;9.148;2023-06-22T00:40:27;25.40;61.60
62589;DHT22;58504;48.770;9.148;2023-06-22T00:43:06;25.30;61.50
62589;DHT22;58504;48.770;9.148;2023-06-22T00:45:33;25.30;61.50
62589;DHT22;58504;48.770;9.148;2023-06-22T00:48:00;25.30;61.50
62589;DHT22;58504;48.770;9.148;2023-06-22T00:50:30;25.30;61.50
62589;DHT22;58504;48.770;9.148;2023-06-22T00:52:59;25.30;61.50
62589;DHT22;58504;48.770;9.148;2023-06-22T00:55:27;25.30;61.50
62589;DHT22;58504;48.770;9.148;2023-06-22T00:57:54;25.30;61.60
62589;DHT22;58504;48.770;9.148;2023-06-22T01:00:23;25.30;61.60
62589;DHT22;58504;48.770;9.148;2023-06-22T01:02:51;25.30;61.60
62589;DHT22;58504;48.770;9.148;2023-06-22T01:05:19;25.30;61.60
62589;DHT22;58504;48.770;9.148;2023-06-22T01:07:56;25.30;61.50
62589;DHT22;58504;48.770;9.148;2023-06-22T01:10:31;25.30;61.50
62589;DHT22;58504;48.770;9.148;2023-06-22T01:13:02;25.30;61.50
62589;DHT22;58504;48.770;9.148;2023-06-22T01:15:34;25.30;61.50
62589;DHT22;58504;48.770;9.148;2023-06-22T01:18:03;25.30;61.40
62589;DHT22;58504;48.770;9.148;2023-06-22T01:20:31;25.30;61.40
62589;DHT22;58504;48.770;9.148;2023-06-22T01:23:08;25.30;61.50
62589;DHT22;58504;48.770;9.148;2023-06-22T01:25:53;25.30;61.30
62589;DHT22;58504;48.770;9.148;2023-06-22T01:31:17;25.30;61.30
62589;DHT22;58504;48.770;9.148;2023-06-22T01:33:48;25.30;61.40
62589;DHT22;58504;48.770;9.148;2023-06-22T01:36:16;25.30;61.40
62589;DHT22;58504;48.770;9.148;2023-06-22T01:38:44;25.30;61.40
62589;DHT22;58504;48.770;9.148;2023-06-22T01:41:12;25.30;61.30
62589;DHT22;58504;48.770;9.148;2023-06-22T01:43:41;25.30;61.20
62589;DHT22;58504;48.770;9.148;2023-06-22T01:46:09;25.30;61.30
62589;DHT22;58504;48.770;9.148;2023-06-22T01:48:36;25.30;61.30
62589;DHT22;58504;48.770;9.148;2023-06-22T01:51:03;25.20;61.30
62589;DHT22;58504;48.770;9.148;2023-06-22T01:53:30;25.30;61.30
62589;DHT22;58504;48.770;9.148;2023-06-22T01:55:57;25.20;61.20
62589;DHT22;58504;48.770;9.148;2023-06-22T01:58:26;25.20;61.30
62589;DHT22;58504;48.770;9.148;2023-06-22T02:01:00;25.30;61.40
62589;DHT22;58504;48.770;9.148;2023-06-22T02:03:34;25.30;61.30
62589;DHT22;58504;48.770;9.148;2023-06-22T02:06:05;25.30;61.40
62589;DHT22;58504;48.770;9.148;2023-06-22T02:08:37;25.30;61.40
62589;DHT22;58504;48.770;9.148;2023-06-22T02:11:06;25.30;61.40
62589;DHT22;58504;48.770;9.148;2023-06-22T02:13:35;25.20;61.30
62589;DHT22;58504;48.770;9.148;2023-06-22T02:16:04;25.30;61.40
62589;DHT22;58504;48.770;9.148;2023-06-22T02:18:30;25.30;61.40
62589;DHT22;58504;48.770;9.148;2023-06-22T02:20:57;25.20;61.30
62589;DHT22;58504;48.770;9.148;2023-06-22T02:23:24;25.20;61.30
62589;DHT22;58504;48.770;9.148;2023-06-22T02:25:51;25.20;61.30
62589;DHT22;58504;48.770;9.148;2023-06-22T02:28:18;25.20;61.20
62589;DHT22;58504;48.770;9.148;2023-06-22T02:30:45;25.20;61.20
62589;DHT22;58504;48.770;9.148;2023-06-22T02:33:13;25.20;61.20
62589;DHT22;58504;48.770;9.148;2023-06-22T02:35:39;25.20;61.20
62589;DHT22;58504;48.770;9.148;2023-06-22T02:38:11;25.20;61.10
62589;DHT22;58504;48.770;9.148;2023-06-22T02:40:37;25.20;61.10
62589;DHT22;58504;48.770;9.148;2023-06-22T02:43:04;25.20;61.10
62589;DHT22;58504;48.770;9.148;2023-06-22T02:45:31;25.20;61.20
62589;DHT22;58504;48.770;9.148;2023-06-22T02:47:58;25.20;61.20
62589;DHT22;58504;48.770;9.148;2023-06-22T02:50:26;25.20;61.30
62589;DHT22;58504;48.770;9.148;2023-06-22T02:52:52;25.20;61.30
62589;DHT22;58504;48.770;9.148;2023-06-22T02:55:19;25.20;61.30
62589;DHT22;58504;48.770;9.148;2023-06-22T02:57:46;25.20;61.30
62589;DHT22;58504;48.770;9.148;2023-06-22T03:00:14;25.20;61.30
62589;DHT22;58504;48.770;9.148;2023-06-22T03:02:43;25.20;61.30
62589;DHT22;58504;48.770;9.148;2023-06-22T03:05:10;25.20;61.20
62589;DHT22;58504;48.770;9.148;2023-06-22T03:07:40;25.10;61.10
62589;DHT22;58504;48.770;9.148;2023-06-22T03:10:08;25.20;61.20
62589;DHT22;58504;48.770;9.148;2023-06-22T03:12:35;25.20;61.30
62589;DHT22;58504;48.770;9.148;2023-06-22T03:15:03;25.20;61.30
62589;DHT22;58504;48.770;9.148;2023-06-22T03:17:30;25.20;61.30
62589;DHT22;58504;48.770;9.148;2023-06-22T03:19:57;25.20;61.30
62589;DHT22;58504;48.770;9.148;2023-06-22T03:22:23;25.10;61.30
62589;DHT22;58504;48.770;9.148;2023-06-22T03:24:51;25.10;61.30
62589;DHT22;58504;48.770;9.148;2023-06-22T03:27:18;25.10;61.30
62589;DHT22;58504;48.770;9.148;2023-06-22T03:29:45;25.20;61.30
62589;DHT22;58504;48.770;9.148;2023-06-22T03:32:12;25.20;61.30
62589;DHT22;58504;48.770;9.148;2023-06-22T03:34:38;25.20;61.30
62589;DHT22;58504;48.770;9.148;2023-06-22T03:37:05;25.20;61.30
62589;DHT22;58504;48.770;9.148;2023-06-22T03:39:32;25.20;61.20
62589;DHT22;58504;48.770;9.148;2023-06-22T03:42:00;25.20;61.10
62589;DHT22;58504;48.770;9.148;2023-06-22T03:44:27;25.20;61.10
62589;DHT22;58504;48.770;9.148;2023-06-22T03:46:53;25.20;61.20
62589;DHT22;58504;48.770;9.148;2023-06-22T03:49:20;25.20;61.10
62589;DHT22;58504;48.770;9.148;2023-06-22T03:51:47;25.20;61.10
62589;DHT22;58504;48.770;9.148;2023-06-22T03:54:14;25.10;61.00
62589;DHT22;58504;48.770;9.148;2023-06-22T03:56:40;25.20;61.10
62589;DHT22;58504;48.770;9.148;2023-06-22T03:59:08;25.20;61.10
62589;DHT22;58504;48.770;9.148;2023-06-22T04:01:35;25.20;61.10
62589;DHT22;58504;48.770;9.148;2023-06-22T04:04:02;25.20;61.10
62589;DHT22;58504;48.770;9.148;2023-06-22T04:06:29;25.20;61.10
62589;DHT22;58504;48.770;9.148;2023-06-22T04:08:56;25.20;61.00
62589;DHT22;58504;48.770;9.148;2023-06-22T04:11:23;25.20;61.00
62589;DHT22;58504;48.770;9.148;2023-06-22T04:13:49;25.20;60.90
62589;DHT22;58504;48.770;9.148;2023-06-22T04:16:18;25.20;60.90
62589;DHT22;58504;48.770;9.148;2023-06-22T04:18:44;25.20;60.80
62589;DHT22;58504;48.770;9.148;2023-06-22T04:21:11;25.20;60.70
62589;DHT22;58504;48.770;9.148;2023-06-22T04:23:38;25.20;60.60
62589;DHT22;58504;48.770;9.148;2023-06-22T04:26:05;25.30;60.70
62589;DHT22;58504;48.770;9.148;2023-06-22T04:28:31;25.30;60.70
62589;DHT22;58504;48.770;9.148;2023-06-22T04:31:00;25.30;60.60
62589;DHT22;58504;48.770;9.148;2023-06-22T04:33:29;25.30;60.60
62589;DHT22;58504;48.770;9.148;2023-06-22T04:35:56;25.30;60.60
62589;DHT22;58504;48.770;9.148;2023-06-22T04:38:24;25.30;60.50
62589;DHT22;58504;48.770;9.148;2023-06-22T04:40:51;25.30;60.60
62589;DHT22;58504;48.770;9.148;2023-06-22T04:43:18;25.30;60.50
62589;DHT22;58504;48.770;9.148;2023-06-22T04:45:45;25.30;60.50
62589;DHT22;58504;48.770;9.148;2023-06-22T04:48:17;25.40;60.50
62589;DHT22;58504;48.770;9.148;2023-06-22T04:50:45;25.40;60.50
62589;DHT22;58504;48.770;9.148;2023-06-22T04:53:12;25.40;60.50
62589;DHT22;58504;48.770;9.148;2023-06-22T04:55:39;25.40;60.40
62589;DHT22;58504;48.770;9.148;2023-06-22T04:58:11;25.40;60.30
62589;DHT22;58504;48.770;9.148;2023-06-22T05:00:38;25.40;60.30
62589;DHT22;58504;48.770;9.148;2023-06-22T05:03:05;25.50;60.30
62589;DHT22;58504;48.770;9.148;2023-06-22T05:05:36;25.50;60.30
62589;DHT22;58504;48.770;9.148;2023-06-22T05:08:04;25.50;60.60
62589;DHT22;58504;48.770;9.148;2023-06-22T05:10:32;25.50;60.10
62589;DHT22;58504;48.770;9.148;2023-06-22T05:12:59;25.60;60.20
62589;DHT22;58504;48.770;9.148;2023-06-22T05:15:25;25.50;60.00
62589;DHT22;58504;48.770;9.148;2023-06-22T05:17:56;25.60;60.00
62589;DHT22;58504;48.770;9.148;2023-06-22T05:20:23;25.60;60.00
62589;DHT22;58504;48.770;9.148;2023-06-22T05:22:50;25.60;59.80
62589;DHT22;58504;48.770;9.148;2023-06-22T05:25:19;25.60;59.80
62589;DHT22;58504;48.770;9.148;2023-06-22T05:27:45;25.60;59.80
62589;DHT22;58504;48.770;9.148;2023-06-22T05:30:12;25.70;59.80
62589;DHT22;58504;48.770;9.148;2023-06-22T05:32:39;25.70;59.60
62589;DHT22;58504;48.770;9.148;2023-06-22T05:35:06;25.70;59.50
62589;DHT22;58504;48.770;9.148;2023-06-22T05:37:33;25.70;59.40
62589;DHT22;58504;48.770;9.148;2023-06-22T05:40:00;25.80;59.30
62589;DHT22;58504;48.770;9.148;2023-06-22T05:42:29;25.80;59.10
62589;DHT22;58504;48.770;9.148;2023-06-22T05:44:56;25.80;59.00
62589;DHT22;58504;48.770;9.148;2023-06-22T05:47:24;25.80;58.80
62589;DHT22;58504;48.770;9.148;2023-06-22T05:49:51;25.90;58.90
62589;DHT22;58504;48.770;9.148;2023-06-22T05:52:17;26.00;58.90
62589;DHT22;58504;48.770;9.148;2023-06-22T05:54:44;25.90;58.80
62589;DHT22;58504;48.770;9.148;2023-06-22T05:57:11;26.00;59.00
62589;DHT22;58504;48.770;9.148;2023-06-22T05:59:39;26.00;58.90
62589;DHT22;58504;48.770;9.148;2023-06-22T06:02:06;26.00;58.90
62589;DHT22;58504;48.770;9.148;2023-06-22T06:04:32;26.00;59.00
62589;DHT22;58504;48.770;9.148;2023-06-22T06:07:00;26.00;59.10
62589;DHT22;58504;48.770;9.148;2023-06-22T06:09:26;26.00;59.10
62589;DHT22;58504;48.770;9.148;2023-06-22T06:11:53;26.00;59.10
62589;DHT22;58504;48.770;9.148;2023-06-22T06:14:20;26.00;59.10
62589;DHT22;58504;48.770;9.148;2023-06-22T06:16:48;26.00;59.10
62589;DHT22;58504;48.770;9.148;2023-06-22T06:19:15;26.00;59.00
62589;DHT22;58504;48.770;9.148;2023-06-22T06:21:42;26.00;59.00
62589;DHT22;58504;48.770;9.148;2023-06-22T06:24:09;26.10;58.90
62589;DHT22;58504;48.770;9.148;2023-06-22T06:26:35;26.10;58.70
62589;DHT22;58504;48.770;9.148;2023-06-22T06:29:02;26.20;58.70
62589;DHT22;58504;48.770;9.148;2023-06-22T06:31:29;26.20;58.50
62589;DHT22;58504;48.770;9.148;2023-06-22T06:33:57;26.20;58.20
62589;DHT22;58504;48.770;9.148;2023-06-22T06:36:24;26.30;58.00
62589;DHT22;58504;48.770;9.148;2023-06-22T06:38:51;26.30;57.90
62589;DHT22;58504;48.770;9.148;2023-06-22T06:41:18;26.40;57.80
62589;DHT22;58504;48.770;9.148;2023-06-22T06:43:45;26.40;57.70
62589;DHT22;58504;48.770;9.148;2023-06-22T06:46:12;26.50;57.60
62589;DHT22;58504;48.770;9.148;2023-06-22T06:48:38;26.50;57.50
62589;DHT22;58504;48.770;9.148;2023-06-22T06:51:07;26.60;57.40
62589;DHT22;58504;48.770;9.148;2023-06-22T06:53:35;26.60;57.30
62589;DHT22;58504;48.770;9.148;2023-06-22T06:56:02;26.70;57.10
62589;DHT22;58504;48.770;9.148;2023-06-22T06:58:30;26.70;57.00
62589;DHT22;58504;48.770;9.148;2023-06-22T07:00:58;26.80;57.00
62589;DHT22;58504;48.770;9.148;2023-06-22T07:03:24;26.80;56.90
62589;DHT22;58504;48.770;9.148;2023-06-22T07:05:51;26.80;56.90
62589;DHT22;58504;48.770;9.148;2023-06-22T07:08:19;26.70;57.00
62589;DHT22;58504;48.770;9.148;2023-06-22T07:10:46;26.60;57.10
62589;DHT22;58504;48.770;9.148;2023-06-22T07:13:13;26.60;57.30
62589;DHT22;58504;48.770;9.148;2023-06-22T07:15:39;26.50;57.40
62589;DHT22;58504;48.770;9.148;2023-06-22T07:18:06;26.50;57.60
62589;DHT22;58504;48.770;9.148;2023-06-22T07:20:33;26.40;57.70
62589;DHT22;58504;48.770;9.148;2023-06-22T07:23:00;26.40;57.80
62589;DHT22;58504;48.770;9.148;2023-06-22T07:25:28;26.40;57.80
62589;DHT22;58504;48.770;9.148;2023-06-22T07:27:59;26.40;57.90
62589;DHT22;58504;48.770;9.148;2023-06-22T07:30:27;26.30;57.80
62589;DHT22;58504;48.770;9.148;2023-06-22T07:32:54;26.40;58.40
62589;DHT22;58504;48.770;9.148;2023-06-22T07:35:20;26.30;57.90
62589;DHT22;58504;48.770;9.148;2023-06-22T07:37:47;26.30;58.00
62589;DHT22;58504;48.770;9.148;2023-06-22T07:40:14;26.30;58.10
62589;DHT22;58504;48.770;9.148;2023-06-22T07:42:42;26.30;58.20
62589;DHT22;58504;48.770;9.148;2023-06-22T07:45:09;26.30;58.20
62589;DHT22;58504;48.770;9.148;2023-06-22T07:47:36;26.30;58.20
62589;DHT22;58504;48.770;9.148;2023-06-22T07:50:03;26.20;58.30
62589;DHT22;58504;48.770;9.148;2023-06-22T07:52:31;26.30;58.40
62589;DHT22;58504;48.770;9.148;2023-06-22T07:54:58;26.20;58.30
62589;DHT22;58504;48.770;9.148;2023-06-22T07:57:25;26.30;58.40
62589;DHT22;58504;48.770;9.148;2023-06-22T07:59:59;26.30;58.40
62589;DHT22;58504;48.770;9.148;2023-06-22T08:02:25;26.30;58.40
62589;DHT22;58504;48.770;9.148;2023-06-22T08:04:52;26.30;58.50
62589;DHT22;58504;48.770;9.148;2023-06-22T08:07:19;26.30;58.40
62589;DHT22;58504;48.770;9.148;2023-06-22T08:09:47;26.30;58.30
62589;DHT22;58504;48.770;9.148;2023-06-22T08:12:14;26.30;58.30
62589;DHT22;58504;48.770;9.148;2023-06-22T08:14:42;26.30;58.40
62589;DHT22;58504;48.770;9.148;2023-06-22T08:17:10;26.30;58.40
62589;DHT22;58504;48.770;9.148;2023-06-22T08:19:37;26.30;58.40
62589;DHT22;58504;48.770;9.148;2023-06-22T08:22:04;26.30;58.40
62589;DHT22;58504;48.770;9.148;2023-06-22T08:24:31;26.30;58.40
62589;DHT22;58504;48.770;9.148;2023-06-22T08:26:58;26.30;58.40
62589;DHT22;58504;48.770;9.148;2023-06-22T08:29:25;26.30;58.40
62589;DHT22;58504;48.770;9.148;2023-06-22T08:31:52;26.30;58.40
62589;DHT22;58504;48.770;9.148;2023-06-22T08:34:20;26.30;58.40
62589;DHT22;58504;48.770;9.148;2023-06-22T08:36:50;26.30;58.50
62589;DHT22;58504;48.770;9.148;2023-06-22T08:39:18;26.30;58.60
62589;DHT22;58504;48.770;9.148;2023-06-22T08:41:45;26.30;58.70
62589;DHT22;58504;48.770;9.148;2023-06-22T08:44:12;26.30;58.60
62589;DHT22;58504;48.770;9.148;2023-06-22T08:46:39;26.30;58.60
62589;DHT22;58504;48.770;9.148;2023-06-22T08:49:07;26.30;58.60
62589;DHT22;58504;48.770;9.148;2023-06-22T08:51:36;26.30;58.60
62589;DHT22;58504;48.770;9.148;2023-06-22T08:54:03;26.30;58.60
62589;DHT22;58504;48.770;9.148;2023-06-22T08:56:30;26.30;58.50
62589;DHT22;58504;48.770;9.148;2023-06-22T08:58:57;26.30;58.50
62589;DHT22;58504;48.770;9.148;2023-06-22T09:01:24;26.30;58.50
62589;DHT22;58504;48.770;9.148;2023-06-22T09:03:50;26.30;58.50
62589;DHT22;58504;48.770;9.148;2023-06-22T09:06:22;26.30;58.50
62589;DHT22;58504;48.770;9.148;2023-06-22T09:08:50;26.30;58.50
62589;DHT22;58504;48.770;9.148;2023-06-22T09:11:17;26.30;58.50
62589;DHT22;58504;48.770;9.148;2023-06-22T09:13:44;26.30;58.50
62589;DHT22;58504;48.770;9.148;2023-06-22T09:16:11;26.30;59.00
62589;DHT22;58504;48.770;9.148;2023-06-22T09:18:38;26.30;58.50
62589;DHT22;58504;48.770;9.148;2023-06-22T09:21:05;26.30;58.50
62589;DHT22;58504;48.770;9.148;2023-06-22T09:23:32;26.30;58.50
62589;DHT22;58504;48.770;9.148;2023-06-22T09:26:01;26.30;58.40
62589;DHT22;58504;48.770;9.148;2023-06-22T09:28:29;26.30;58.40
62589;DHT22;58504;48.770;9.148;2023-06-22T09:30:56;26.40;58.50
62589;DHT22;58504;48.770;9.148;2023-06-22T09:33:24;26.30;58.40
62589;DHT22;58504;48.770;9.148;2023-06-22T09:35:51;26.40;58.40
62589;DHT22;58504;48.770;9.148;2023-06-22T09:38:18;26.30;58.40
62589;DHT22;58504;48.770;9.148;2023-06-22T09:40:44;26.40;58.40
62589;DHT22;58504;48.770;9.148;2023-06-22T09:43:13;26.30;58.40
62589;DHT22;58504;48.770;9.148;2023-06-22T09:45:39;26.30;58.40
62589;DHT22;58504;48.770;9.148;2023-06-22T09:48:06;26.40;58.50
62589;DHT22;58504;48.770;9.148;2023-06-22T09:50:35;26.40;59.10
62589;DHT22;58504;48.770;9.148;2023-06-22T09:53:02;26.40;58.40
62589;DHT22;58504;48.770;9.148;2023-06-22T09:55:29;26.40;58.50
62589;DHT22;58504;48.770;9.148;2023-06-22T09:57:55;26.40;58.50
62589;DHT22;58504;48.770;9.148;2023-06-22T10:00:23;26.40;58.40
62589;DHT22;58504;48.770;9.148;2023-06-22T10:02:52;26.40;58.50
62589;DHT22;58504;48.770;9.148;2023-06-22T10:05:19;26.50;58.50
62589;DHT22;58504;48.770;9.148;2023-06-22T10:07:45;26.40;58.60
62589;DHT22;58504;48.770;9.148;2023-06-22T10:10:13;26.40;58.30
62589;DHT22;58504;48.770;9.148;2023-06-22T10:12:46;26.40;58.40
62589;DHT22;58504;48.770;9.148;2023-06-22T10:15:14;26.40;58.40
62589;DHT22;58504;48.770;9.148;2023-06-22T10:17:42;26.40;58.40
62589;DHT22;58504;48.770;9.148;2023-06-22T10:20:09;26.40;58.40
62589;DHT22;58504;48.770;9.148;2023-06-22T10:22:38;26.40;58.40
62589;DHT22;58504;48.770;9.148;2023-06-22T10:25:06;26.40;58.50
62589;DHT22;58504;48.770;9.148;2023-06-22T10:27:33;26.40;58.50
62589;DHT22;58504;48.770;9.148;2023-06-22T10:30:00;26.50;58.50
62589;DHT22;58504;48.770;9.148;2023-06-22T10:32:27;26.40;58.40
62589;DHT22;58504;48.770;9.148;2023-06-22T10:34:55;26.40;58.40
62589;DHT22;58504;48.770;9.148;2023-06-22T10:37:22;26.50;58.40
62589;DHT22;58504;48.770;9.148;2023-06-22T10:39:49;26.50;58.40
62589;DHT22;58504;48.770;9.148;2023-06-22T10:42:16;26.40;58.30
62589;DHT22;58504;48.770;9.148;2023-06-22T10:44:43;26.50;58.30
62589;DHT22;58504;48.770;9.148;2023-06-22T10:47:10;26.50;58.30
62589;DHT22;58504;48.770;9.148;2023-06-22T10:49:37;26.50;58.30
62589;DHT22;58504;48.770;9.148;2023-06-22T10:52:07;26.50;58.20
62589;DHT22;58504;48.770;9.148;2023-06-22T10:54:34;26.50;58.20
62589;DHT22;58504;48.770;9.148;2023-06-22T10:57:01;26.40;58.20
62589;DHT22;58504;48.770;9.148;2023-06-22T10:59:27;26.40;58.10
62589;DHT22;58504;48.770;9.148;2023-06-22T11:01:55;26.40;58.20
62589;DHT22;58504;48.770;9.148;2023-06-22T11:04:21;26.40;58.10
62589;DHT22;58504;48.770;9.148;2023-06-22T11:06:49;26.40;58.10
62589;DHT22;58504;48.770;9.148;2023-06-22T11:09:17;26.40;58.10
62589;DHT22;58504;48.770;9.148;2023-06-22T11:11:46;26.40;58.10
62589;DHT22;58504;48.770;9.148;2023-06-22T11:14:13;26.40;58.10
62589;DHT22;58504;48.770;9.148;2023-06-22T11:16:39;26.40;58.10
62589;DHT22;58504;48.770;9.148;2023-06-22T11:19:06;26.40;58.10
62589;DHT22;58504;48.770;9.148;2023-06-22T11:21:33;26.40;58.20
62589;DHT22;58504;48.770;9.148;2023-06-22T11:24:00;26.40;58.20
62589;DHT22;58504;48.770;9.148;2023-06-22T11:26:28;26.40;58.20
62589;DHT22;58504;48.770;9.148;2023-06-22T11:28:55;26.40;58.20
62589;DHT22;58504;48.770;9.148;2023-06-22T11:31:22;26.40;58.20
62589;DHT22;58504;48.770;9.148;2023-06-22T11:33:48;26.40;58.20
62589;DHT22;58504;48.770;9.148;2023-06-22T11:36:15;26.40;58.30
62589;DHT22;58504;48.770;9.148;2023-06-22T11:38:42;26.40;58.40
62589;DHT22;58504;48.770;9.148;2023-06-22T11:41:09;26.40;58.50
62589;DHT22;58504;48.770;9.148;2023-06-22T11:43:37;26.40;58.50
62589;DHT22;58504;48.770;9.148;2023-06-22T11:46:04;26.40;58.40
62589;DHT22;58504;48.770;9.148;2023-06-22T11:48:31;26.40;58.30
62589;DHT22;58504;48.770;9.148;2023-06-22T11:50:58;26.40;58.30
62589;DHT22;58504;48.770;9.148;2023-06-22T11:53:26;26.40;58.20
62589;DHT22;58504;48.770;9.148;2023-06-22T11:55:53;26.40;58.90
62589;DHT22;58504;48.770;9.148;2023-06-22T11:58:20;26.40;58.40
62589;DHT22;58504;48.770;9.148;2023-06-22T12:00:49;26.40;58.50
62589;DHT22;58504;48.770;9.148;2023-06-22T12:03:15;26.40;58.40
62589;DHT22;58504;48.770;9.148;2023-06-22T12:05:42;26.40;58.30
62589;DHT22;58504;48.770;9.148;2023-06-22T12:08:09;26.40;58.30
62589;DHT22;58504;48.770;9.148;2023-06-22T12:10:37;26.40;58.30
62589;DHT22;58504;48.770;9.148;2023-06-22T12:13:03;26.40;58.40
62589;DHT22;58504;48.770;9.148;2023-06-22T12:15:30;26.40;58.40
62589;DHT22;58504;48.770;9.148;2023-06-22T12:17:58;26.40;58.40
62589;DHT22;58504;48.770;9.148;2023-06-22T12:20:26;26.40;58.50
62589;DHT22;58504;48.770;9.148;2023-06-22T12:22:53;26.40;58.50
62589;DHT22;58504;48.770;9.148;2023-06-22T12:25:22;26.40;58.40
62589;DHT22;58504;48.770;9.148;2023-06-22T12:27:48;26.40;58.50
62589;DHT22;58504;48.770;9.148;2023-06-22T12:30:16;26.40;58.40
62589;DHT22;58504;48.770;9.148;2023-06-22T12:32:43;26.40;58.40
62589;DHT22;58504;48.770;9.148;2023-06-22T12:35:11;26.40;58.40
62589;DHT22;58504;48.770;9.148;2023-06-22T12:37:40;26.40;58.40
62589;DHT22;58504;48.770;9.148;2023-06-22T12:40:07;26.40;58.40
62589;DHT22;58504;48.770;9.148;2023-06-22T12:42:34;26.40;58.50
62589;DHT22;58504;48.770;9.148;2023-06-22T12:45:01;26.30;58.50
62589;DHT22;58504;48.770;9.148;2023-06-22T12:47:28;26.30;58.60
62589;DHT22;58504;48.770;9.148;2023-06-22T12:49:54;26.30;58.70
62589;DHT22;58504;48.770;9.148;2023-06-22T12:52:23;26.30;58.70
62589;DHT22;58504;48.770;9.148;2023-06-22T12:54:49;26.30;58.70
62589;DHT22;58504;48.770;9.148;2023-06-22T12:57:17;26.30;58.60
62589;DHT22;58504;48.770;9.148;2023-06-22T12:59:45;26.30;58.60
62589;DHT22;58504;48.770;9.148;2023-06-22T13:02:11;26.30;58.70
62589;DHT22;58504;48.770;9.148;2023-06-22T13:04:39;26.30;58.60
62589;DHT22;58504;48.770;9.148;2023-06-22T13:07:05;26.30;58.60
62589;DHT22;58504;48.770;9.148;2023-06-22T13:09:33;26.30;58.60
62589;DHT22;58504;48.770;9.148;2023-06-22T13:12:02;26.30;58.50
62589;DHT22;58504;48.770;9.148;2023-06-22T13:14:29;26.30;58.50
62589;DHT22;58504;48.770;9.148;2023-06-22T13:16:56;26.30;58.50
62589;DHT22;58504;48.770;9.148;2023-06-22T13:19:22;26.30;59.00
62589;DHT22;58504;48.770;9.148;2023-06-22T13:21:49;26.40;58.40
62589;DHT22;58504;48.770;9.148;2023-06-22T13:24:16;26.50;58.40
62589;DHT22;58504;48.770;9.148;2023-06-22T13:26:44;26.50;58.40
62589;DHT22;58504;48.770;9.148;2023-06-22T13:29:11;26.60;58.30
62589;DHT22;58504;48.770;9.148;2023-06-22T13:31:38;26.60;58.10
62589;DHT22;58504;48.770;9.148;2023-06-22T13:34:04;26.70;58.30
62589;DHT22;58504;48.770;9.148;2023-06-22T13:36:31;26.70;58.40
62589;DHT22;58504;48.770;9.148;2023-06-22T13:38:58;26.70;58.30
62589;DHT22;58504;48.770;9.148;2023-06-22T13:41:25;26.80;58.30
62589;DHT22;58504;48.770;9.148;2023-06-22T13:43:53;26.80;58.30
62589;DHT22;58504;48.770;9.148;2023-06-22T13:46:19;26.80;58.20
62589;DHT22;58504;48.770;9.148;2023-06-22T13:48:46;26.80;58.20
62589;DHT22;58504;48.770;9.148;2023-06-22T13:51:13;26.90;58.20
62589;DHT22;58504;48.770;9.148;2023-06-22T13:53:40;26.80;58.20
62589;DHT22;58504;48.770;9.148;2023-06-22T13:56:06;26.80;58.20
62589;DHT22;58504;48.770;9.148;2023-06-22T13:58:33;26.80;58.10
62589;DHT22;58504;48.770;9.148;2023-06-22T14:01:01;26.80;58.00
62589;DHT22;58504;48.770;9.148;2023-06-22T14:03:28;26.90;58.10
62589;DHT22;58504;48.770;9.148;2023-06-22T14:05:54;26.90;58.20
62589;DHT22;58504;48.770;9.148;2023-06-22T14:08:23;26.90;58.10
62589;DHT22;58504;48.770;9.148;2023-06-22T14:10:50;26.90;58.00
62589;DHT22;58504;48.770;9.148;2023-06-22T14:13:19;27.00;57.90
62589;DHT22;58504;48.770;9.148;2023-06-22T14:15:45;27.00;57.80
62589;DHT22;58504;48.770;9.148;2023-06-22T14:18:15;27.00;57.70
62589;DHT22;58504;48.770;9.148;2023-06-22T14:20:42;27.00;57.60
62589;DHT22;58504;48.770;9.148;2023-06-22T14:23:10;27.10;57.60
62589;DHT22;58504;48.770;9.148;2023-06-22T14:25:37;27.10;57.50
62589;DHT22;58504;48.770;9.148;2023-06-22T14:28:04;27.10;57.50
62589;DHT22;58504;48.770;9.148;2023-06-22T14:30:30;27.10;57.40
62589;DHT22;58504;48.770;9.148;2023-06-22T14:32:57;27.10;57.40
62589;DHT22;58504;48.770;9.148;2023-06-22T14:35:25;27.10;57.30
62589;DHT22;58504;48.770;9.148;2023-06-22T14:37:52;27.10;57.30
62589;DHT22;58504;48.770;9.148;2023-06-22T14:40:18;27.20;57.30
62589;DHT22;58504;48.770;9.148;2023-06-22T14:42:45;27.10;57.90
62589;DHT22;58504;48.770;9.148;2023-06-22T14:45:13;27.10;57.40
62589;DHT22;58504;48.770;9.148;2023-06-22T14:47:40;27.10;57.30
62589;DHT22;58504;48.770;9.148;2023-06-22T14:50:07;27.10;57.50
62589;DHT22;58504;48.770;9.148;2023-06-22T14:52:35;27.10;57.50
62589;DHT22;58504;48.770;9.148;2023-06-22T14:55:02;27.10;57.30
62589;DHT22;58504;48.770;9.148;2023-06-22T14:57:29;27.10;57.30
62589;DHT22;58504;48.770;9.148;2023-06-22T14:59:56;27.10;57.30
62589;DHT22;58504;48.770;9.148;2023-06-22T15:02:22;27.00;57.40
62589;DHT22;58504;48.770;9.148;2023-06-22T15:04:49;27.00;57.40
62589;DHT22;58504;48.770;9.148;2023-06-22T15:07:18;27.00;57.40
62589;DHT22;58504;48.770;9.148;2023-06-22T15:09:46;27.00;57.40
62589;DHT22;58504;48.770;9.148;2023-06-22T15:12:13;27.00;57.50
62589;DHT22;58504;48.770;9.148;2023-06-22T15:14:40;27.00;57.40
62589;DHT22;58504;48.770;9.148;2023-06-22T15:17:08;27.00;57.40
62589;DHT22;58504;48.770;9.148;2023-06-22T15:19:35;27.00;57.30
62589;DHT22;58504;48.770;9.148;2023-06-22T15:22:04;27.00;57.30
62589;DHT22;58504;48.770;9.148;2023-06-22T15:24:31;27.00;57.30
62589;DHT22;58504;48.770;9.148;2023-06-22T15:26:59;27.00;57.30
62589;DHT22;58504;48.770;9.148;2023-06-22T15:29:26;27.00;57.30
62589;DHT22;58504;48.770;9.148;2023-06-22T15:31:53;27.00;57.30
62589;DHT22;58504;48.770;9.148;2023-06-22T15:34:19;27.00;57.40